Time;durP1;ratioP1;P1;durP2;ratioP2;P2;SDS_P1;SDS_P2;PMS_P1;PMS_P2;Temp;Humidity;BMP_temperature;BMP_pressure;BME280_temperature;BME280_humidity;BME280_pressure;Samples;Min_cycle;Max_cycle;Signal;HPM_P1;HPM_P2
2022/09/16 00:00:21;;;;;;;4.67;1.07;;;;;;;11.17;100.00;100661.13;6152008;23;20695;-74
2022/09/16 00:02:50;;;;;;;6.10;1.33;;;;;;;10.76;100.00;100574.44;6151323;23;20177;-74
2022/09/16 00:05:16;;;;;;;4.33;0.80;;;;;;;10.84;100.00;100589.47;6125639;23;20398;-75
2022/09/16 00:07:41;;;;;;;5.50;1.10;;;;;;;10.90;100.00;100598.56;6125752;23;20397;-74
2022/09/16 00:10:07;;;;;;;3.63;0.90;;;;;;;10.87;100.00;100594.44;6146462;23;20181;-74
2022/09/16 00:12:33;;;;;;;4.33;1.07;;;;;;;11.41;100.00;100698.09;6149681;23;20655;-75
2022/09/16 00:14:58;;;;;;;3.00;1.10;;;;;;;11.93;100.00;100787.75;6124683;23;20157;-74
2022/09/16 00:17:23;;;;;;;2.27;1.00;;;;;;;11.99;100.00;100803.06;6150983;23;20204;-74
2022/09/16 00:19:49;;;;;;;2.50;1.00;;;;;;;12.21;100.00;100829.72;6125950;23;20221;-74
2022/09/16 00:22:16;;;;;;;3.77;1.20;;;;;;;12.12;100.00;100839.88;6153633;23;20254;-74
2022/09/16 00:24:42;;;;;;;1.80;0.80;;;;;;;11.94;100.00;100820.84;6127328;23;20169;-74
2022/09/16 00:27:07;;;;;;;1.40;0.80;;;;;;;11.97;100.00;100845.44;6126644;23;20385;-74
2022/09/16 00:29:33;;;;;;;3.60;0.90;;;;;;;11.31;100.00;100746.00;6126428;23;20188;-75
2022/09/16 00:31:58;;;;;;;4.73;1.00;;;;;;;11.95;100.00;100827.88;6152776;23;20169;-75
2022/09/16 00:34:24;;;;;;;2.43;0.87;;;;;;;12.23;100.00;100834.88;6127012;23;20506;-75
2022/09/16 00:36:50;;;;;;;5.30;1.03;;;;;;;11.86;100.00;100813.84;6126634;23;20221;-74
2022/09/16 00:39:15;;;;;;;3.97;1.07;;;;;;;12.36;100.00;100827.59;6126638;23;20393;-73
2022/09/16 00:41:41;;;;;;;3.03;0.90;;;;;;;11.87;100.00;100788.59;6146199;23;20631;-74
2022/09/16 00:44:45;;;;;;;3.33;1.27;;;;;;;12.16;100.00;100824.94;6122061;23;20168;-74
2022/09/16 00:47:13;;;;;;;5.10;1.53;;;;;;;12.16;100.00;100832.19;6099840;23;20161;-74
2022/09/16 00:49:39;;;;;;;2.90;0.87;;;;;;;11.88;100.00;100790.25;6122876;23;20952;-74
2022/09/16 00:52:06;;;;;;;3.90;1.30;;;;;;;11.99;100.00;100796.84;6143530;23;20405;-75
2022/09/16 00:54:34;;;;;;;5.03;1.10;;;;;;;12.20;100.00;100850.38;6147243;23;20292;-74
2022/09/16 00:57:01;;;;;;;6.47;1.57;;;;;;;12.27;100.00;100852.25;6122622;23;20487;-74
2022/09/16 00:59:40;;;;;;;5.27;1.20;;;;;;;12.33;100.00;100854.09;6119953;23;20389;-75
2022/09/16 01:02:10;;;;;;;6.70;1.30;;;;;;;12.32;100.00;100863.19;6119297;23;20404;-75
2022/09/16 01:04:43;;;;;;;5.03;1.43;;;;;;;12.32;100.00;100872.06;6152023;23;20453;-74
2022/09/16 01:07:09;;;;;;;6.50;1.30;;;;;;;12.41;100.00;100856.53;6151215;23;20361;-75
2022/09/16 01:09:35;;;;;;;3.90;1.10;;;;;;;12.35;100.00;100847.47;6150731;23;20376;-73
2022/09/16 01:12:00;;;;;;;5.43;1.00;;;;;;;12.25;100.00;100817.50;6124692;23;20401;-74
2022/09/16 01:15:12;;;;;;;3.37;1.03;;;;;;;12.39;100.00;100816.41;6150222;23;20232;-74
2022/09/16 01:17:20;;;;;;;2.90;0.80;;;;;;;12.59;100.00;100834.38;6128396;23;20180;-74
2022/09/16 01:20:04;;;;;;;6.07;1.07;;;;;;;12.67;100.00;100836.84;6150845;23;20856;-74
2022/09/16 01:22:51;;;;;;;7.10;1.20;;;;;;;12.68;100.00;100822.31;6150883;23;20423;-74
2022/09/16 01:25:29;;;;;;;3.83;1.10;;;;;;;12.63;100.00;100824.81;6151270;23;20369;-74
2022/09/16 01:28:22;;;;;;;4.20;1.20;;;;;;;12.49;100.00;100823.22;6149055;23;20389;-74
2022/09/16 01:30:51;;;;;;;4.33;1.00;;;;;;;12.54;100.00;100813.47;6124093;23;20389;-74
2022/09/16 01:33:38;;;;;;;2.87;0.90;;;;;;;12.55;100.00;100817.81;6122500;23;20409;-74
2022/09/16 01:36:10;;;;;;;4.27;1.13;;;;;;;12.15;100.00;100825.16;6150396;23;20372;-74
2022/09/16 01:39:07;;;;;;;3.50;1.10;;;;;;;12.33;100.00;100862.16;6149862;23;20460;-73
2022/09/16 01:42:01;;;;;;;3.23;1.40;;;;;;;12.54;100.00;100831.47;6101399;23;20508;-74
2022/09/16 01:45:14;;;;;;;3.97;1.10;;;;;;;12.52;100.00;100837.06;6126087;23;20381;-74
2022/09/16 01:48:14;;;;;;;4.43;1.20;;;;;;;12.21;100.00;100822.47;6031042;23;20845;-73
2022/09/16 01:50:56;;;;;;;3.10;0.83;;;;;;;11.72;100.00;100809.47;6143207;23;20411;-73
2022/09/16 01:53:33;;;;;;;3.03;1.00;;;;;;;11.97;100.00;100815.88;6151175;23;20575;-73
2022/09/16 01:56:08;;;;;;;3.30;1.57;;;;;;;11.22;100.00;100672.88;6127152;23;20382;-74
2022/09/16 01:58:41;;;;;;;2.83;1.10;;;;;;;11.68;100.00;100747.22;6128440;23;20415;-74
2022/09/16 02:01:17;;;;;;;6.80;1.37;;;;;;;12.06;100.00;100819.16;6156812;23;20369;-74
2022/09/16 02:03:48;;;;;;;3.03;0.90;;;;;;;11.63;100.00;100773.91;6156752;23;20365;-74
2022/09/16 02:06:20;;;;;;;2.40;0.90;;;;;;;11.58;100.00;100725.34;6131618;23;20376;-74
2022/09/16 02:09:04;;;;;;;5.57;1.10;;;;;;;11.87;100.00;100807.41;6157755;23;20361;-74
2022/09/16 02:11:30;;;;;;;3.50;1.47;;;;;;;12.10;100.00;100824.97;6130012;23;20400;-73
2022/09/16 02:14:17;;;;;;;7.03;1.20;;;;;;;12.05;100.00;100843.59;6129112;23;20468;-74
2022/09/16 02:16:53;;;;;;;7.30;1.50;;;;;;;12.09;100.00;100840.28;6129630;23;20168;-74
2022/09/16 02:19:23;;;;;;;3.60;1.20;;;;;;;11.77;100.00;100798.91;6153627;23;20365;-74
2022/09/16 02:21:53;;;;;;;3.70;1.20;;;;;;;12.15;100.00;100827.84;6128828;23;20397;-74
2022/09/16 02:24:21;;;;;;;5.33;1.30;;;;;;;11.54;100.00;100741.06;6128885;23;20494;-74
2022/09/16 02:26:59;;;;;;;6.50;1.17;;;;;;;12.19;100.00;100815.63;6128509;23;20385;-74
2022/09/16 02:29:31;;;;;;;2.60;1.00;;;;;;;12.18;100.00;100822.06;6155473;23;20381;-73
2022/09/16 02:32:00;;;;;;;8.77;1.30;;;;;;;11.80;100.00;100736.66;6128357;23;20409;-75
2022/09/16 02:34:31;;;;;;;3.37;1.20;;;;;;;12.17;100.00;100805.09;6155615;23;20372;-76
2022/09/16 02:37:03;;;;;;;3.60;1.23;;;;;;;11.86;100.00;100745.78;6130343;23;20428;-73
2022/09/16 02:39:31;;;;;;;4.37;1.50;;;;;;;11.88;100.00;100755.31;6127275;23;20389;-72
2022/09/16 02:41:57;;;;;;;8.53;1.37;;;;;;;12.14;100.00;100794.75;6153924;23;20864;-72
2022/09/16 02:44:24;;;;;;;4.50;1.03;;;;;;;12.17;100.00;100770.13;6154468;23;20381;-73
2022/09/16 02:46:59;;;;;;;9.40;1.40;;;;;;;12.22;100.00;100764.13;6130243;23;20553;-73
2022/09/16 02:49:59;;;;;;;8.23;1.33;;;;;;;12.25;100.00;100785.22;6156137;23;20766;-73
2022/09/16 02:52:48;;;;;;;4.10;1.30;;;;;;;12.42;100.00;100781.03;6128709;23;20409;-72
2022/09/16 02:55:21;;;;;;;6.43;1.70;;;;;;;12.19;100.00;100786.06;6131539;23;20762;-72
2022/09/16 02:57:46;;;;;;;6.57;1.50;;;;;;;12.20;100.00;100793.09;6131161;23;20420;-73
2022/09/16 03:00:12;;;;;;;7.00;2.10;;;;;;;11.87;100.00;100767.09;6130711;23;20865;-73
2022/09/16 03:02:38;;;;;;;5.20;1.20;;;;;;;12.35;100.00;100782.06;6128558;23;20259;-73
2022/09/16 03:05:04;;;;;;;4.70;1.40;;;;;;;12.30;100.00;100780.03;6156481;23;20184;-73
2022/09/16 03:07:30;;;;;;;2.43;1.43;;;;;;;11.67;100.00;100734.03;6130989;23;20377;-73
2022/09/16 03:09:56;;;;;;;5.90;1.47;;;;;;;11.21;100.00;100660.50;6128858;23;20388;-73
2022/09/16 03:12:55;;;;;;;2.40;1.10;;;;;;;12.14;100.00;100773.25;6154228;23;20169;-73
2022/09/16 03:16:06;;;;;;;7.17;1.50;;;;;;;11.89;100.00;100770.41;6156773;23;20140;-73
2022/09/16 03:18:46;;;;;;;3.53;1.00;;;;;;;11.98;100.00;100763.78;6128534;23;20916;-72
2022/09/16 03:21:14;;;;;;;4.73;1.10;;;;;;;12.13;100.00;100765.41;6155641;23;20369;-75
2022/09/16 03:23:56;;;;;;;3.70;1.10;;;;;;;11.98;100.00;100747.66;6154469;23;20684;-74
2022/09/16 03:26:51;;;;;;;9.57;1.50;;;;;;;12.02;100.00;100766.03;6128533;23;20392;-74
2022/09/16 03:29:25;;;;;;;4.20;1.10;;;;;;;11.87;100.00;100767.09;6136253;23;20923;-74
2022/09/16 03:32:04;;;;;;;8.20;1.40;;;;;;;11.95;100.00;100764.19;6128324;23;20430;-74
2022/09/16 03:34:35;;;;;;;4.20;1.40;;;;;;;12.02;100.00;100731.91;6154463;23;20468;-75
2022/09/16 03:37:06;;;;;;;4.73;1.20;;;;;;;12.01;100.00;100735.66;6155814;23;20436;-74
2022/09/16 03:39:33;;;;;;;5.43;1.50;;;;;;;11.88;100.00;100723.03;6153359;23;20745;-75
2022/09/16 03:42:01;;;;;;;2.60;0.97;;;;;;;12.42;100.00;100756.81;6153810;23;20397;-75
2022/09/16 03:44:34;;;;;;;6.40;1.30;;;;;;;12.62;100.00;100770.19;6127166;23;20381;-74
2022/09/16 03:47:01;;;;;;;5.60;1.47;;;;;;;11.49;100.00;100611.09;6152789;23;20369;-75
2022/09/16 03:49:27;;;;;;;5.13;1.40;;;;;;;12.14;100.00;100748.22;6154955;23;20380;-74
2022/09/16 03:51:52;;;;;;;6.00;1.17;;;;;;;11.29;100.00;100689.00;6154376;23;20400;-74
2022/09/16 03:54:17;;;;;;;4.83;1.23;;;;;;;12.06;100.00;100764.56;6155033;23;20197;-74
2022/09/16 03:56:43;;;;;;;11.77;2.47;;;;;;;11.73;100.00;100701.75;6129259;23;20172;-75
2022/09/16 03:59:08;;;;;;;4.40;1.40;;;;;;;12.19;100.00;100772.63;6128166;23;20164;-74
2022/09/16 04:01:34;;;;;;;6.77;1.60;;;;;;;11.14;100.00;100630.16;6154537;23;20921;-75
2022/09/16 04:03:59;;;;;;;8.93;1.50;;;;;;;12.08;100.00;100762.50;6129736;23;20161;-76
2022/09/16 04:06:24;;;;;;;6.57;1.43;;;;;;;11.70;100.00;100712.94;6153153;23;20152;-74
2022/09/16 04:08:50;;;;;;;12.23;1.53;;;;;;;12.08;100.00;100766.00;6154989;23;20244;-75
2022/09/16 04:11:16;;;;;;;7.10;1.47;;;;;;;12.04;100.00;100739.78;6128118;23;20157;-75
2022/09/16 04:13:41;;;;;;;10.00;1.43;;;;;;;11.96;100.00;100720.13;6129216;23;20509;-75
2022/09/16 04:16:07;;;;;;;7.50;1.53;;;;;;;12.16;100.00;100738.09;6127661;23;20389;-74
2022/09/16 04:18:33;;;;;;;5.57;1.23;;;;;;;12.14;100.00;100727.53;6154842;23;20237;-74
2022/09/16 04:21:01;;;;;;;8.70;1.73;;;;;;;12.25;100.00;100762.88;6128957;23;20219;-74
2022/09/16 04:23:27;;;;;;;6.07;1.67;;;;;;;12.44;100.00;100757.44;6152443;23;20482;-75
2022/09/16 04:25:58;;;;;;;5.73;1.60;;;;;;;12.16;100.00;100762.28;6127494;23;20741;-74
2022/09/16 04:28:23;;;;;;;7.93;1.80;;;;;;;12.18;100.00;100733.34;6154980;23;20369;-75
2022/09/16 04:30:49;;;;;;;7.30;1.57;;;;;;;12.32;100.00;100764.50;6126696;23;21050;-75
2022/09/16 04:33:14;;;;;;;11.07;2.10;;;;;;;12.10;100.00;100712.88;6152036;23;20215;-75
2022/09/16 04:35:40;;;;;;;4.07;1.60;;;;;;;12.64;100.00;100754.66;6124533;23;20158;-75
2022/09/16 04:38:05;;;;;;;7.27;1.73;;;;;;;12.47;100.00;100733.81;6152820;23;20169;-75
2022/09/16 04:40:30;;;;;;;14.03;2.10;;;;;;;11.75;100.00;100604.84;6123420;23;20164;-73
2022/09/16 04:42:56;;;;;;;4.53;1.30;;;;;;;12.49;100.00;100739.81;6151782;23;20616;-74
2022/09/16 04:45:21;;;;;;;8.00;1.77;;;;;;;12.15;100.00;100664.66;6123201;23;20152;-74
2022/09/16 04:47:47;;;;;;;4.53;1.90;;;;;;;12.64;100.00;100714.31;6150827;23;20153;-74
2022/09/16 04:50:12;;;;;;;6.30;1.50;;;;;;;12.22;100.00;100640.44;6126505;23;20719;-74
2022/09/16 04:52:38;;;;;;;3.73;1.07;;;;;;;12.55;100.00;100698.59;6151083;23;20196;-74
2022/09/16 04:55:03;;;;;;;7.73;1.33;;;;;;;12.47;100.00;100690.78;6125437;23;20256;-75
2022/09/16 04:57:33;;;;;;;5.07;1.50;;;;;;;12.58;100.00;100712.47;6126277;23;20176;-74
2022/09/16 04:59:58;;;;;;;3.50;1.07;;;;;;;11.80;100.00;100578.13;6122483;23;20161;-73
2022/09/16 05:02:24;;;;;;;4.93;1.37;;;;;;;12.66;100.00;100717.56;6154346;23;20470;-74
2022/09/16 05:04:49;;;;;;;3.63;1.20;;;;;;;12.45;100.00;100666.78;6150036;23;20585;-74
2022/09/16 05:07:15;;;;;;;6.37;1.57;;;;;;;12.73;100.00;100749.84;6124183;23;20592;-73
2022/09/16 05:09:40;;;;;;;5.07;1.33;;;;;;;12.81;100.00;100728.03;6146704;23;20153;-74
2022/09/16 05:12:07;;;;;;;3.30;1.10;;;;;;;13.01;100.00;100741.38;6146670;23;20583;-74
2022/09/16 05:14:32;;;;;;;3.50;1.30;;;;;;;13.05;100.00;100734.53;6121004;23;20156;-74
2022/09/16 05:16:57;;;;;;;8.23;1.77;;;;;;;12.95;100.00;100733.38;6113981;23;20381;-75
2022/09/16 05:19:25;;;;;;;2.27;1.00;;;;;;;12.66;100.00;100709.50;6117849;23;20195;-73
2022/09/16 05:21:51;;;;;;;4.33;1.43;;;;;;;12.89;100.00;100732.34;6115932;23;20227;-73
2022/09/16 05:24:16;;;;;;;3.73;1.20;;;;;;;12.75;100.00;100731.59;6143773;23;20816;-73
2022/09/16 05:26:42;;;;;;;3.97;0.90;;;;;;;12.55;100.00;100717.44;6146346;23;20160;-73
2022/09/16 05:29:12;;;;;;;3.30;1.13;;;;;;;12.69;100.00;100718.19;6147041;23;20197;-73
2022/09/16 05:31:40;;;;;;;8.63;1.50;;;;;;;12.16;100.00;100678.94;6119683;23;20917;-73
2022/09/16 05:34:17;;;;;;;4.57;1.17;;;;;;;12.53;100.00;100723.03;6148414;23;20485;-73
2022/09/16 05:36:46;;;;;;;4.77;0.90;;;;;;;12.36;100.00;100713.81;6148466;23;20397;-73
2022/09/16 05:39:12;;;;;;;5.70;1.47;;;;;;;12.58;100.00;100734.00;6122137;23;20396;-74
2022/09/16 05:41:38;;;;;;;3.37;0.87;;;;;;;12.86;100.00;100735.50;6148143;23;20402;-72
2022/09/16 05:44:05;;;;;;;3.93;1.03;;;;;;;12.88;100.00;100723.47;6144463;23;20376;-73
2022/09/16 05:46:31;;;;;;;4.33;1.37;;;;;;;12.55;100.00;100685.16;6145351;23;20153;-72
2022/09/16 05:48:57;;;;;;;7.60;1.60;;;;;;;12.49;100.00;100654.56;6149975;23;20369;-73
2022/09/16 05:51:24;;;;;;;6.10;1.30;;;;;;;12.69;100.00;100745.94;6147394;23;20404;-73
2022/09/16 05:53:51;;;;;;;2.50;1.20;;;;;;;12.48;100.00;100733.63;6120330;23;20175;-73
2022/09/16 05:56:24;;;;;;;2.83;1.87;;;;;;;12.41;100.00;100747.09;6143225;23;20456;-69
2022/09/16 05:58:52;;;;;;;4.83;1.30;;;;;;;12.16;100.00;100754.22;6146746;23;20760;-69
2022/09/16 06:01:20;;;;;;;5.30;1.50;;;;;;;12.01;100.00;100741.03;6145270;23;20381;-69
2022/09/16 06:03:47;;;;;;;7.10;2.07;;;;;;;12.26;100.00;100748.38;6122379;23;20812;-69
2022/09/16 06:06:27;;;;;;;7.93;2.00;;;;;;;12.32;100.00;100751.03;6148495;23;20387;-69
2022/09/16 06:08:55;;;;;;;6.43;1.80;;;;;;;12.27;100.00;100710.53;6147883;23;20357;-69
2022/09/16 06:11:22;;;;;;;11.13;1.77;;;;;;;12.63;100.00;100755.69;6147074;23;20377;-68
2022/09/16 06:14:01;;;;;;;6.93;2.53;;;;;;;12.51;100.00;100737.75;6146654;23;20454;-69
2022/09/16 06:16:31;;;;;;;5.13;2.07;;;;;;;11.84;100.00;100656.47;6145647;23;20365;-70
2022/09/16 06:18:59;;;;;;;4.67;1.30;;;;;;;12.48;100.00;100693.25;6117064;23;20477;-69
2022/09/16 06:21:24;;;;;;;6.00;1.30;;;;;;;12.92;100.00;100734.63;6121088;23;20388;-68
2022/09/16 06:23:50;;;;;;;8.77;2.03;;;;;;;12.78;100.00;100725.78;6144876;23;20422;-69
2022/09/16 06:26:18;;;;;;;7.50;1.83;;;;;;;12.54;100.00;100688.91;6123856;23;20517;-69
2022/09/16 06:28:44;;;;;;;15.07;2.33;;;;;;;12.89;100.00;100735.06;6149672;23;20528;-69
2022/09/16 06:31:17;;;;;;;8.53;2.00;;;;;;;13.01;100.00;100727.09;6144887;23;20380;-69
2022/09/16 06:33:42;;;;;;;6.00;1.77;;;;;;;12.35;100.00;100613.47;6149958;23;20715;-69
2022/09/16 06:36:11;;;;;;;4.53;1.67;;;;;;;11.89;100.00;100594.88;6150732;23;20384;-69
2022/09/16 06:38:37;;;;;;;10.90;2.10;;;;;;;12.48;100.00;100654.78;6149818;23;20239;-69
2022/09/16 06:41:10;;;;;;;11.43;2.40;;;;;;;13.01;100.00;100735.19;6142627;23;20377;-70
2022/09/16 06:43:37;;;;;;;4.70;1.60;;;;;;;12.89;100.00;100714.34;6116160;23;20388;-70
2022/09/16 06:46:17;;;;;;;9.80;1.93;;;;;;;12.58;100.00;100676.66;6123304;23;20417;-70
2022/09/16 06:48:45;;;;;;;9.23;2.60;;;;;;;13.07;100.00;100732.44;6148141;23;20414;-68
2022/09/16 06:51:16;;;;;;;6.77;2.30;;;;;;;13.12;100.00;100724.53;6148957;23;20384;-69
2022/09/16 06:53:43;;;;;;;10.13;2.07;;;;;;;13.18;100.00;100704.00;6121212;23;20482;-69
2022/09/16 06:56:11;;;;;;;10.37;2.00;;;;;;;13.06;100.00;100654.59;6149534;23;20395;-69
2022/09/16 06:58:38;;;;;;;9.63;2.17;;;;;;;13.24;100.00;100696.91;6150854;23;20417;-70
2022/09/16 07:01:08;;;;;;;12.30;1.90;;;;;;;13.46;100.00;100698.19;6150511;23;20437;-70
2022/09/16 07:03:42;;;;;;;11.60;2.50;;;;;;;13.52;100.00;100701.88;6122972;23;20373;-70
2022/09/16 07:06:08;;;;;;;19.83;2.60;;;;;;;13.41;100.00;100681.88;6123198;23;20389;-70
2022/09/16 07:08:35;;;;;;;8.30;1.77;;;;;;;13.57;100.00;100691.28;6123483;23;20912;-70
2022/09/16 07:11:14;;;;;;;5.03;1.27;;;;;;;13.45;100.00;100666.94;6125329;23;20883;-70
2022/09/16 07:13:40;;;;;;;4.17;1.40;;;;;;;13.63;100.00;100679.59;6119169;23;20385;-69
2022/09/16 07:16:11;;;;;;;6.20;1.40;;;;;;;13.64;100.00;100689.31;6123443;23;20736;-69
2022/09/16 07:18:37;;;;;;;4.60;1.50;;;;;;;13.52;100.00;100645.28;6147977;23;20802;-69
2022/09/16 07:21:10;;;;;;;2.70;1.00;;;;;;;13.77;100.00;100673.03;6147345;23;20385;-70
2022/09/16 07:23:36;;;;;;;4.80;1.90;;;;;;;13.92;100.00;100675.34;6142757;23;20396;-70
2022/09/16 07:26:07;;;;;;;4.87;1.27;;;;;;;13.81;100.00;100629.44;6144731;23;20380;-69
2022/09/16 07:28:33;;;;;;;6.57;2.27;;;;;;;13.64;100.00;100613.84;6112743;23;20895;-69
2022/09/16 07:31:07;;;;;;;5.37;1.30;;;;;;;14.00;100.00;100656.16;6141924;23;20373;-69
2022/09/16 07:33:38;;;;;;;8.10;1.60;;;;;;;14.11;100.00;100670.75;6144308;23;20141;-70
2022/09/16 07:36:08;;;;;;;4.20;1.17;;;;;;;14.30;100.00;100690.44;6149444;23;20429;-71
2022/09/16 07:38:34;;;;;;;16.93;1.83;;;;;;;14.23;100.00;100682.44;6149967;23;20427;-70
2022/09/16 07:41:26;;;;;;;7.13;1.33;;;;;;;14.27;100.00;100688.22;6143912;23;20377;-70
2022/09/16 07:43:57;;;;;;;7.63;1.70;;;;;;;14.32;100.00;100687.50;6146234;23;20513;-70
2022/09/16 07:46:24;;;;;;;14.77;1.90;;;;;;;14.34;100.00;100688.94;6149687;23;20381;-70
2022/09/16 07:48:50;;;;;;;11.33;2.17;;;;;;;14.22;100.00;100645.72;6121927;23;20801;-70
2022/09/16 07:51:18;;;;;;;8.87;1.83;;;;;;;14.44;100.00;100670.34;6150815;23;20378;-70
2022/09/16 07:53:45;;;;;;;7.47;1.60;;;;;;;14.53;100.00;100689.78;6150594;23;20848;-71
2022/09/16 07:56:17;;;;;;;8.43;2.13;;;;;;;14.63;100.00;100681.09;6151415;23;20398;-70
2022/09/16 07:58:44;;;;;;;4.63;1.40;;;;;;;14.55;100.00;100659.84;6151660;23;20868;-70
2022/09/16 08:01:10;;;;;;;9.37;2.60;;;;;;;14.48;100.00;100655.31;6150688;23;20794;-70
2022/09/16 08:03:38;;;;;;;11.53;1.97;;;;;;;14.74;100.00;100687.59;6150819;23;20415;-71
2022/09/16 08:06:06;;;;;;;7.33;1.50;;;;;;;14.76;100.00;100688.22;6125806;23;20860;-71
2022/09/16 08:08:32;;;;;;;8.23;1.70;;;;;;;14.77;100.00;100695.25;6150094;23;20938;-71
2022/09/16 08:10:59;;;;;;;10.90;1.73;;;;;;;14.84;100.00;100685.16;6152091;23;21143;-71
2022/09/16 08:13:26;;;;;;;5.63;1.63;;;;;;;14.48;100.00;100632.91;6150789;23;20865;-71
2022/09/16 08:15:53;;;;;;;6.13;1.17;;;;;;;14.96;100.00;100701.41;6151246;23;20420;-71
2022/09/16 08:18:18;;;;;;;10.10;2.17;;;;;;;14.75;100.00;100689.25;6151571;23;21074;-71
2022/09/16 08:20:44;;;;;;;7.80;1.73;;;;;;;14.26;100.00;100691.94;6151336;23;25116;-70
2022/09/16 08:23:09;;;;;;;6.30;1.57;;;;;;;14.22;100.00;100710.44;6150903;23;20199;-70
2022/09/16 08:25:35;;;;;;;7.10;1.63;;;;;;;13.54;100.00;100649.41;6150939;23;20200;-70
2022/09/16 08:28:02;;;;;;;4.20;1.50;;;;;;;14.18;100.00;100716.53;6124801;23;20617;-71
2022/09/16 08:30:27;;;;;;;21.57;2.30;;;;;;;13.96;100.00;100652.25;6151565;23;20162;-71
2022/09/16 08:32:57;;;;;;;7.33;1.57;;;;;;;14.13;100.00;100668.66;6150478;23;20480;-71
2022/09/16 08:35:24;;;;;;;16.70;1.83;;;;;;;14.65;100.00;100714.09;6151782;23;20149;-71
2022/09/16 08:37:50;;;;;;;5.37;1.40;;;;;;;14.04;100.00;100591.00;6125153;23;20427;-71
2022/09/16 08:40:19;;;;;;;12.27;1.60;;;;;;;14.93;100.00;100694.59;6151071;23;20444;-71
2022/09/16 08:43:04;;;;;;;5.53;1.70;;;;;;;15.08;100.00;100689.56;6151342;23;20175;-71
2022/09/16 08:45:48;;;;;;;116.13;7.87;;;;;;;14.97;100.00;100709.28;6124825;23;20452;-70
2022/09/16 08:48:27;;;;;;;16.23;2.10;;;;;;;14.82;100.00;100708.88;6151380;23;20448;-71
2022/09/16 08:50:53;;;;;;;11.67;1.37;;;;;;;14.55;100.00;100693.06;6150471;23;20415;-71
2022/09/16 08:53:36;;;;;;;3.53;1.23;;;;;;;14.68;100.00;100700.16;6149818;23;20736;-71
2022/09/16 08:56:11;;;;;;;3.70;1.30;;;;;;;14.62;100.00;100698.38;6150751;23;20396;-71
2022/09/16 08:58:41;;;;;;;3.70;1.10;;;;;;;14.75;100.00;100689.25;6150630;23;21193;-70
2022/09/16 09:01:21;;;;;;;3.40;1.20;;;;;;;14.82;100.00;100676.50;6150683;23;20369;-70
2022/09/16 09:03:48;;;;;;;8.87;1.43;;;;;;;14.87;100.00;100690.94;6150896;23;20376;-70
2022/09/16 09:06:41;;;;;;;6.80;1.57;;;;;;;14.87;100.00;100725.22;6122996;23;20442;-70
2022/09/16 09:09:40;;;;;;;9.20;1.83;;;;;;;13.76;100.00;100730.66;6151092;23;20396;-69
2022/09/16 09:12:37;;;;;;;5.00;1.63;;;;;;;13.26;100.00;100764.88;6123980;23;20405;-69
2022/09/16 09:15:17;;;;;;;5.23;1.50;;;;;;;13.15;100.00;100781.72;6125352;23;20384;-69
2022/09/16 09:17:49;;;;;;;5.63;1.40;;;;;;;12.74;100.00;100788.34;6124330;23;20932;-70
2022/09/16 09:20:40;;;;;;;6.03;1.30;;;;;;;12.73;100.00;100776.78;6125805;23;20388;-70
2022/09/16 09:23:20;;;;;;;5.07;1.40;;;;;;;12.46;100.00;100767.16;6123579;23;20427;-70
2022/09/16 09:25:56;;;;;;;2.30;1.13;;;;;;;12.68;100.00;100757.75;6124849;23;20405;-70
2022/09/16 09:28:46;;;;;;;5.80;1.43;;;;;;;12.79;100.00;100749.00;6123849;23;20373;-70
2022/09/16 09:31:43;;;;;;;4.47;1.20;;;;;;;13.06;100.00;100759.59;6150671;23;20714;-69
2022/09/16 09:34:30;;;;;;;4.33;1.30;;;;;;;13.63;100.00;100755.06;6151489;23;20351;-69
2022/09/16 09:37:34;;;;;;;15.17;3.13;;;;;;;13.43;100.00;100765.19;6124340;23;20804;-69
2022/09/16 09:40:12;;;;;;;3.10;0.90;;;;;;;13.54;100.00;100762.59;6151108;23;20373;-69
2022/09/16 09:43:22;;;;;;;9.43;1.60;;;;;;;13.48;100.00;100754.53;6123600;23;20425;-69
2022/09/16 09:46:06;;;;;;;6.63;1.20;;;;;;;13.66;100.00;100762.69;6095395;23;20415;-69
2022/09/16 09:48:43;;;;;;;7.60;1.60;;;;;;;14.07;100.00;100728.06;6151110;23;20883;-69
2022/09/16 09:51:39;;;;;;;10.77;1.60;;;;;;;14.38;100.00;100724.41;6151184;23;20892;-69
2022/09/16 09:54:24;;;;;;;23.97;2.53;;;;;;;14.77;100.00;100722.25;6151078;23;20405;-70
2022/09/16 09:57:11;;;;;;;11.67;1.90;;;;;;;14.66;100.00;100677.94;6150195;23;20408;-69
2022/09/16 09:59:49;;;;;;;9.90;1.93;;;;;;;14.88;100.00;100656.66;6149683;23;20396;-69
2022/09/16 10:02:20;;;;;;;39.70;3.80;;;;;;;14.73;100.00;100703.00;6150193;23;20402;-70
2022/09/16 10:04:46;;;;;;;10.80;2.13;;;;;;;14.69;100.00;100696.38;6127797;23;20396;-70
2022/09/16 10:07:14;;;;;;;14.30;2.10;;;;;;;14.74;100.00;100701.94;6126693;23;20738;-70
2022/09/16 10:09:59;;;;;;;6.97;1.50;;;;;;;14.12;100.00;100642.75;6154309;23;20380;-70
2022/09/16 10:12:33;;;;;;;5.60;1.73;;;;;;;14.73;100.00;100699.47;6153020;23;20432;-70
2022/09/16 10:15:00;;;;;;;19.07;2.63;;;;;;;14.56;100.00;100686.59;6151885;23;20380;-70
2022/09/16 10:17:30;;;;;;;11.83;1.93;;;;;;;14.50;100.00;100692.88;6152714;23;20431;-70
2022/09/16 10:19:59;;;;;;;5.90;1.83;;;;;;;14.38;100.00;100686.63;6151733;23;20383;-70
2022/09/16 10:22:32;;;;;;;7.57;2.47;;;;;;;14.87;100.00;100709.84;6151531;23;20400;-69
2022/09/16 10:25:05;;;;;;;11.00;1.70;;;;;;;15.15;100.00;100698.38;6124288;23;20380;-70
2022/09/16 10:27:36;;;;;;;12.43;1.70;;;;;;;15.36;100.00;100686.22;6151665;23;20431;-69
2022/09/16 10:30:02;;;;;;;3.70;1.20;;;;;;;15.73;100.00;100694.09;6124740;23;20404;-70
2022/09/16 10:32:29;;;;;;;14.10;1.83;;;;;;;14.94;100.00;100598.19;6150191;23;20392;-70
2022/09/16 10:34:55;;;;;;;14.37;2.37;;;;;;;15.59;100.00;100674.59;6124453;23;20750;-69
2022/09/16 10:37:21;;;;;;;28.27;3.00;;;;;;;15.44;100.00;100652.59;6124273;23;20432;-69
2022/09/16 10:39:56;;;;;;;7.43;2.10;;;;;;;15.60;100.00;100673.50;6124106;23;20775;-70
2022/09/16 10:42:26;;;;;;;5.97;1.20;;;;;;;15.95;100.00;100669.97;6121022;23;20496;-69
2022/09/16 10:45:00;;;;;;;4.90;1.40;;;;;;;15.73;100.00;100634.59;6148232;23;20381;-70
2022/09/16 10:47:29;;;;;;;9.80;1.83;;;;;;;15.70;100.00;100645.91;6147328;23;20705;-70
2022/09/16 10:50:00;;;;;;;11.70;1.70;;;;;;;15.24;100.00;100690.75;6148491;23;20387;-70
2022/09/16 10:52:30;;;;;;;6.40;1.30;;;;;;;15.08;100.00;100694.16;6149868;23;20408;-70
2022/09/16 10:54:56;;;;;;;14.00;2.10;;;;;;;15.24;100.00;100682.66;6123338;23;20417;-70
2022/09/16 10:57:33;;;;;;;9.00;1.70;;;;;;;15.03;100.00;100640.00;6149609;23;20779;-70
2022/09/16 11:00:10;;;;;;;8.63;1.57;;;;;;;15.32;100.00;100681.50;6150927;23;20541;-70
2022/09/16 11:02:35;;;;;;;7.43;1.47;;;;;;;15.41;100.00;100688.19;6149118;23;20401;-70
2022/09/16 11:05:13;;;;;;;11.30;2.07;;;;;;;14.91;100.00;100640.00;6125029;23;20924;-70
2022/09/16 11:07:54;;;;;;;9.23;2.30;;;;;;;14.96;100.00;100696.84;6125732;23;20232;-70
2022/09/16 11:10:32;;;;;;;9.33;2.53;;;;;;;14.87;100.00;100674.75;6149479;23;20696;-70
2022/09/16 11:13:23;;;;;;;16.77;2.90;;;;;;;15.02;100.00;100679.69;6125206;23;20999;-71
2022/09/16 11:15:54;;;;;;;28.13;3.13;;;;;;;14.71;100.00;100588.19;6149606;23;20821;-71
2022/09/16 11:18:43;;;;;;;12.23;2.13;;;;;;;15.50;100.00;100654.34;6150458;23;25072;-70
2022/09/16 11:21:45;;;;;;;9.97;2.80;;;;;;;15.79;100.00;100660.72;6122741;23;20418;-71
2022/09/16 11:24:54;;;;;;;11.63;2.73;;;;;;;16.12;100.00;100663.81;6124508;23;20473;-70
2022/09/16 11:27:31;;;;;;;11.07;2.50;;;;;;;15.99;100.00;100627.84;6031203;23;20392;-70
2022/09/16 11:30:29;;;;;;;7.70;2.30;;;;;;;16.23;100.00;100642.13;6140427;23;20399;-70
2022/09/16 11:33:05;;;;;;;19.83;3.33;;;;;;;15.88;100.00;100598.97;6148100;23;20503;-70
2022/09/16 11:35:58;;;;;;;8.40;2.30;;;;;;;16.25;100.00;100644.59;6150437;23;20465;-71
2022/09/16 11:38:37;;;;;;;14.33;2.40;;;;;;;16.22;100.00;100636.94;6145900;23;20416;-70
2022/09/16 11:41:24;;;;;;;10.70;2.60;;;;;;;16.31;100.00;100649.03;6125451;23;20392;-71